createdAt,value
2019-05-25T00:00:12.831Z,1010.31
2019-05-25T00:01:12.821Z,1010.30
2019-05-25T00:02:12.794Z,1010.32
2019-05-25T00:03:12.774Z,1010.34
2019-05-25T00:04:12.761Z,1010.32
2019-05-25T00:05:12.739Z,1010.38
2019-05-25T00:06:12.773Z,1010.37
2019-05-25T00:07:12.735Z,1010.38
2019-05-25T00:08:12.680Z,1010.37
2019-05-25T00:09:12.666Z,1010.36
2019-05-25T00:10:12.644Z,1010.37
2019-05-25T00:11:12.633Z,1010.35
2019-05-25T00:12:12.610Z,1010.38
2019-05-25T00:13:12.602Z,1010.38
2019-05-25T00:14:12.570Z,1010.38
2019-05-25T00:15:12.551Z,1010.36
2019-05-25T00:16:12.538Z,1010.34
2019-05-25T00:17:12.517Z,1010.36
2019-05-25T00:18:12.652Z,1010.35
2019-05-25T00:19:12.474Z,1010.34
2019-05-25T00:20:12.455Z,1010.37
2019-05-25T00:21:14.204Z,1010.38
2019-05-25T00:22:12.418Z,1010.40
2019-05-25T00:23:12.412Z,1010.39
2019-05-25T00:24:12.944Z,1010.42
2019-05-25T00:25:12.363Z,1010.38
2019-05-25T00:26:12.353Z,1010.37
2019-05-25T00:27:12.329Z,1010.37
2019-05-25T00:28:12.306Z,1010.37
2019-05-25T00:29:12.288Z,1010.33
2019-05-25T00:30:12.267Z,1010.33
2019-05-25T00:31:12.259Z,1010.35
2019-05-25T00:32:12.228Z,1010.33
2019-05-25T00:33:12.219Z,1010.33
2019-05-25T00:34:12.200Z,1010.34
2019-05-25T00:35:12.174Z,1010.36
2019-05-25T00:36:12.154Z,1010.41
2019-05-25T00:37:12.137Z,1010.40
2019-05-25T00:38:12.120Z,1010.42
2019-05-25T00:42:02.581Z,1010.36
2019-05-25T00:42:29.347Z,1010.37
2019-05-25T00:44:02.562Z,1010.35
2019-05-25T00:44:29.310Z,1010.37
2019-05-25T00:45:29.290Z,1010.39
2019-05-25T00:46:29.281Z,1010.42
2019-05-25T00:47:29.260Z,1010.41
2019-05-25T00:48:29.234Z,1010.42
2019-05-25T00:49:29.214Z,1010.39
2019-05-25T00:50:29.210Z,1010.39
2019-05-25T00:51:29.178Z,1010.39
2019-05-25T00:52:29.155Z,1010.43
2019-05-25T00:53:29.137Z,1010.41
2019-05-25T00:54:29.118Z,1010.44
2019-05-25T00:55:29.101Z,1010.44
2019-05-25T00:56:29.089Z,1010.41
2019-05-25T00:58:32.761Z,1010.45
2019-05-25T00:59:32.750Z,1010.46
2019-05-25T01:00:32.744Z,1010.46
2019-05-25T01:01:32.703Z,1010.50
2019-05-25T01:02:32.694Z,1010.47
2019-05-25T01:03:32.665Z,1010.53
2019-05-25T01:04:32.646Z,1010.51
2019-05-25T01:05:32.627Z,1010.49
2019-05-25T01:06:32.614Z,1010.51
2019-05-25T01:08:05.797Z,1010.47
2019-05-25T01:08:32.569Z,1010.47
2019-05-25T01:10:05.758Z,1010.48
2019-05-25T01:10:32.532Z,1010.50
2019-05-25T01:11:32.512Z,1010.47
2019-05-25T01:12:32.493Z,1010.51
2019-05-25T01:13:32.474Z,1010.51
2019-05-25T01:14:32.460Z,1010.51
2019-05-25T01:15:32.438Z,1010.50
2019-05-25T01:16:32.418Z,1010.51
2019-05-25T01:17:32.404Z,1010.50
2019-05-25T01:18:32.378Z,1010.48
2019-05-25T01:19:32.358Z,1010.48
2019-05-25T01:20:32.353Z,1010.49
2019-05-25T01:21:32.321Z,1010.50
2019-05-25T01:22:32.304Z,1010.49
2019-05-25T01:23:32.288Z,1010.53
2019-05-25T01:24:43.869Z,1010.55
2019-05-25T01:25:32.242Z,1010.57
2019-05-25T01:26:32.227Z,1010.54
2019-05-25T01:27:32.210Z,1010.60
2019-05-25T01:28:32.187Z,1010.59
2019-05-25T01:29:32.174Z,1010.58
2019-05-25T01:30:32.149Z,1010.56
2019-05-25T01:31:32.125Z,1010.55
2019-05-25T01:32:32.118Z,1010.58
2019-05-25T01:33:32.087Z,1010.59
2019-05-25T01:34:32.078Z,1010.61
2019-05-25T01:35:32.058Z,1010.62
2019-05-25T01:36:32.030Z,1010.61
2019-05-25T01:37:32.011Z,1010.64
2019-05-25T01:38:31.992Z,1010.65
2019-05-25T01:39:31.973Z,1010.67
2019-05-25T01:40:32.000Z,1010.65
2019-05-25T01:41:31.934Z,1010.69
2019-05-25T01:42:31.924Z,1010.66
2019-05-25T01:43:31.894Z,1010.69
2019-05-25T01:44:31.876Z,1010.67
2019-05-25T01:45:31.861Z,1010.68
2019-05-25T01:46:31.852Z,1010.65
2019-05-25T01:47:31.819Z,1010.70
2019-05-25T01:48:31.797Z,1010.66
2019-05-25T01:49:31.780Z,1010.68
2019-05-25T01:50:31.962Z,1010.65
2019-05-25T01:51:31.742Z,1010.65
2019-05-25T01:52:31.723Z,1010.67
2019-05-25T01:53:31.705Z,1010.64
2019-05-25T01:54:31.683Z,1010.63
2019-05-25T01:55:31.667Z,1010.65
2019-05-25T01:56:31.646Z,1010.62
2019-05-25T01:57:31.635Z,1010.61
2019-05-25T01:58:31.617Z,1010.62
2019-05-25T01:59:31.587Z,1010.62
2019-05-25T02:00:31.568Z,1010.64
2019-05-25T02:01:31.549Z,1010.60
2019-05-25T02:02:31.530Z,1010.59
2019-05-25T02:03:31.507Z,1010.62
2019-05-25T02:04:31.491Z,1010.59
2019-05-25T02:05:31.478Z,1010.62
2019-05-25T02:06:31.453Z,1010.67
2019-05-25T02:07:31.434Z,1010.69
2019-05-25T02:08:31.410Z,1010.65
2019-05-25T02:09:31.406Z,1010.67
2019-05-25T02:10:31.372Z,1010.66
2019-05-25T02:11:31.354Z,1010.66
2019-05-25T02:12:31.335Z,1010.68
2019-05-25T02:13:31.316Z,1010.69
2019-05-25T02:14:31.295Z,1010.73
2019-05-25T02:15:31.281Z,1010.72
2019-05-25T02:16:31.257Z,1010.72
2019-05-25T02:17:31.236Z,1010.71
2019-05-25T02:18:31.219Z,1010.69
2019-05-25T02:19:31.197Z,1010.71
2019-05-25T02:20:31.177Z,1010.74
2019-05-25T02:21:31.183Z,1010.75
2019-05-25T02:22:31.137Z,1010.74
2019-05-25T02:23:31.117Z,1010.72
2019-05-25T02:24:31.121Z,1010.71
2019-05-25T02:25:31.078Z,1010.70
2019-05-25T02:26:31.059Z,1010.68
2019-05-25T02:27:31.056Z,1010.72
2019-05-25T02:28:31.044Z,1010.68
2019-05-25T02:29:31.018Z,1010.70
2019-05-25T02:30:30.995Z,1010.74
2019-05-25T02:31:30.970Z,1010.74
2019-05-25T02:32:30.943Z,1010.76
2019-05-25T02:33:30.924Z,1010.77
2019-05-25T02:34:30.911Z,1010.77
2019-05-25T02:35:30.881Z,1010.77
2019-05-25T02:36:30.871Z,1010.76
2019-05-25T02:37:30.842Z,1010.82
2019-05-25T02:38:30.823Z,1010.81
2019-05-25T02:39:30.802Z,1010.82
2019-05-25T02:40:30.783Z,1010.84
2019-05-25T02:41:30.765Z,1010.80
2019-05-25T02:42:30.745Z,1010.82
2019-05-25T02:43:30.723Z,1010.84
2019-05-25T02:44:30.710Z,1010.88
2019-05-25T02:45:30.685Z,1010.89
2019-05-25T02:46:30.667Z,1010.85
2019-05-25T02:47:30.646Z,1010.87
2019-05-25T02:48:30.628Z,1010.89
2019-05-25T02:49:30.606Z,1010.90
2019-05-25T02:50:30.588Z,1010.87
2019-05-25T02:51:30.571Z,1010.91
2019-05-25T02:52:30.548Z,1010.91
2019-05-25T02:53:30.529Z,1010.92
2019-05-25T02:54:30.510Z,1010.95
2019-05-25T02:55:34.244Z,1010.92
2019-05-25T02:56:30.469Z,1010.94
2019-05-25T02:57:30.451Z,1010.93
2019-05-25T02:58:30.429Z,1010.96
2019-05-25T03:00:30.398Z,1010.95
2019-05-25T03:01:30.376Z,1010.96
2019-05-25T03:02:30.350Z,1010.98
2019-05-25T03:03:30.328Z,1011.00
2019-05-25T03:04:30.309Z,1011.06
2019-05-25T03:05:30.290Z,1011.01
2019-05-25T03:06:30.271Z,1011.00
2019-05-25T03:07:30.260Z,1011.04
2019-05-25T03:08:30.230Z,1011.03
2019-05-25T03:09:30.210Z,1011.10
2019-05-25T03:10:30.189Z,1011.08
2019-05-25T03:11:30.176Z,1011.10
2019-05-25T03:12:30.152Z,1011.10
2019-05-25T03:13:30.143Z,1011.14
2019-05-25T03:14:30.123Z,1011.13
2019-05-25T03:15:30.087Z,1011.16
2019-05-25T03:16:30.070Z,1011.17
2019-05-25T03:17:30.052Z,1011.12
2019-05-25T03:18:30.038Z,1011.11
2019-05-25T03:19:30.010Z,1011.16
2019-05-25T03:20:29.990Z,1011.17
2019-05-25T03:21:29.973Z,1011.19
2019-05-25T03:22:29.952Z,1011.15
2019-05-25T03:23:29.930Z,1011.19
2019-05-25T03:24:29.910Z,1011.19
2019-05-25T03:25:30.071Z,1011.20
2019-05-25T03:26:29.889Z,1011.18
2019-05-25T03:27:29.850Z,1011.19
2019-05-25T03:28:29.832Z,1011.20
2019-05-25T03:29:29.816Z,1011.21
2019-05-25T03:30:29.792Z,1011.20
2019-05-25T03:31:29.779Z,1011.24
2019-05-25T03:32:29.752Z,1011.21
2019-05-25T03:33:29.738Z,1011.18
2019-05-25T03:34:29.715Z,1011.16
2019-05-25T03:35:29.700Z,1011.16
2019-05-25T03:36:29.676Z,1011.17
2019-05-25T03:37:29.658Z,1011.21
2019-05-25T03:38:29.632Z,1011.21
2019-05-25T03:39:29.613Z,1011.20
2019-05-25T03:40:29.593Z,1011.24
2019-05-25T03:41:29.573Z,1011.23
2019-05-25T03:42:29.554Z,1011.21
2019-05-25T03:43:29.533Z,1011.17
2019-05-25T03:44:29.519Z,1011.19
2019-05-25T03:45:29.496Z,1011.13
2019-05-25T03:46:29.482Z,1011.18
2019-05-25T03:47:29.454Z,1011.18
2019-05-25T03:48:29.435Z,1011.17
2019-05-25T03:49:29.416Z,1011.17
2019-05-25T03:50:29.402Z,1011.23
2019-05-25T03:51:29.390Z,1011.21
2019-05-25T03:52:29.364Z,1011.18
2019-05-25T03:53:29.339Z,1011.21
2019-05-25T03:54:29.319Z,1011.20
2019-05-25T03:55:29.299Z,1011.24
2019-05-25T03:56:29.283Z,1011.22
2019-05-25T03:57:29.259Z,1011.18
2019-05-25T03:58:29.242Z,1011.23
2019-05-25T03:59:29.221Z,1011.23
2019-05-25T04:00:29.209Z,1011.22
2019-05-25T04:01:29.191Z,1011.20
2019-05-25T04:02:29.252Z,1011.19
2019-05-25T04:03:29.141Z,1011.18
2019-05-25T04:04:29.122Z,1011.22
2019-05-25T04:05:29.104Z,1011.29
2019-05-25T04:06:29.091Z,1011.28
2019-05-25T04:07:29.068Z,1011.27
2019-05-25T04:08:29.049Z,1011.32
2019-05-25T04:09:29.030Z,1011.33
2019-05-25T04:10:29.005Z,1011.30
2019-05-25T04:11:28.995Z,1011.29
2019-05-25T04:12:28.971Z,1011.27
2019-05-25T04:13:28.946Z,1011.25
2019-05-25T04:14:28.930Z,1011.29
2019-05-25T04:15:28.910Z,1011.28
2019-05-25T04:16:28.893Z,1011.34
2019-05-25T04:17:28.870Z,1011.34
2019-05-25T04:18:28.850Z,1011.33
2019-05-25T04:19:28.839Z,1011.33
2019-05-25T04:20:28.869Z,1011.30
2019-05-25T04:21:28.829Z,1011.29
2019-05-25T04:22:28.773Z,1011.28
2019-05-25T04:23:28.758Z,1011.28
2019-05-25T04:24:28.733Z,1011.27
2019-05-25T04:25:28.714Z,1011.27
2019-05-25T04:26:28.696Z,1011.27
2019-05-25T04:27:28.676Z,1011.26
2019-05-25T04:28:28.657Z,1011.29
2019-05-25T04:29:28.637Z,1011.24
2019-05-25T04:30:28.619Z,1011.30
2019-05-25T04:31:28.598Z,1011.34
2019-05-25T04:32:28.579Z,1011.29
2019-05-25T04:33:28.569Z,1011.36
2019-05-25T04:34:28.555Z,1011.36
2019-05-25T04:35:28.529Z,1011.37
2019-05-25T04:36:28.514Z,1011.42
2019-05-25T04:37:28.485Z,1011.42
2019-05-25T04:38:28.502Z,1011.40
2019-05-25T04:39:28.456Z,1011.35
2019-05-25T04:40:28.427Z,1011.38
2019-05-25T04:41:28.409Z,1011.42
2019-05-25T04:42:28.393Z,1011.42
2019-05-25T04:43:28.372Z,1011.43
2019-05-25T04:44:28.350Z,1011.46
2019-05-25T04:45:28.332Z,1011.47
2019-05-25T04:46:28.320Z,1011.46
2019-05-25T04:47:28.297Z,1011.47
2019-05-25T04:48:28.276Z,1011.45
2019-05-25T04:49:28.264Z,1011.49
2019-05-25T04:50:28.238Z,1011.50
2019-05-25T04:51:28.219Z,1011.48
2019-05-25T04:52:28.199Z,1011.53
2019-05-25T04:53:28.181Z,1011.53
2019-05-25T04:54:28.164Z,1011.57
2019-05-25T04:55:28.142Z,1011.53
2019-05-25T04:56:38.739Z,1011.55
2019-05-25T04:57:28.117Z,1011.58
2019-05-25T04:58:28.090Z,1011.58
2019-05-25T04:59:28.068Z,1011.58
2019-05-25T05:00:28.048Z,1011.58
2019-05-25T05:01:28.028Z,1011.58
2019-05-25T05:02:28.013Z,1011.55
2019-05-25T05:03:27.990Z,1011.58
2019-05-25T05:04:27.974Z,1011.60
2019-05-25T05:05:27.953Z,1011.60
2019-05-25T05:06:27.936Z,1011.61
2019-05-25T05:07:27.917Z,1011.61
2019-05-25T05:08:27.902Z,1011.57
2019-05-25T05:09:27.877Z,1011.59
2019-05-25T05:10:27.859Z,1011.61
2019-05-25T05:11:27.838Z,1011.58
2019-05-25T05:12:27.821Z,1011.61
2019-05-25T05:13:27.802Z,1011.57
2019-05-25T05:14:27.783Z,1011.61
2019-05-25T05:15:27.765Z,1011.62
2019-05-25T05:16:27.765Z,1011.63
2019-05-25T05:17:27.736Z,1011.63
2019-05-25T05:18:27.711Z,1011.60
2019-05-25T05:19:27.690Z,1011.62
2019-05-25T05:20:27.676Z,1011.67
2019-05-25T05:21:27.652Z,1011.64
2019-05-25T05:22:27.633Z,1011.67
2019-05-25T05:23:27.613Z,1011.60
2019-05-25T05:24:27.594Z,1011.61
2019-05-25T05:25:27.580Z,1011.63
2019-05-25T05:26:27.570Z,1011.60
2019-05-25T05:27:27.541Z,1011.60
2019-05-25T05:28:27.522Z,1011.61
2019-05-25T05:29:27.501Z,1011.62
2019-05-25T05:30:27.493Z,1011.65
2019-05-25T05:31:27.465Z,1011.66
2019-05-25T05:32:28.136Z,1011.68
2019-05-25T05:33:27.437Z,1011.68
2019-05-25T05:34:27.429Z,1011.71
2019-05-25T05:35:27.398Z,1011.69
2019-05-25T05:36:27.392Z,1011.72
2019-05-25T05:37:27.353Z,1011.71
2019-05-25T05:38:27.348Z,1011.71
2019-05-25T05:39:27.315Z,1011.69
2019-05-25T05:40:27.300Z,1011.71
2019-05-25T05:41:27.282Z,1011.74
2019-05-25T05:42:27.266Z,1011.71
2019-05-25T05:43:27.242Z,1011.74
2019-05-25T05:44:27.224Z,1011.73
2019-05-25T05:45:27.208Z,1011.73
2019-05-25T05:46:27.187Z,1011.71
2019-05-25T05:47:27.167Z,1011.73
2019-05-25T05:48:27.158Z,1011.70
2019-05-25T05:49:27.140Z,1011.73
2019-05-25T05:50:27.121Z,1011.73
2019-05-25T05:51:27.097Z,1011.70
2019-05-25T05:52:27.195Z,1011.72
2019-05-25T05:53:27.062Z,1011.77
2019-05-25T05:54:27.039Z,1011.76
2019-05-25T05:55:27.022Z,1011.73
2019-05-25T05:56:27.008Z,1011.74
2019-05-25T05:57:26.986Z,1011.76
2019-05-25T05:58:26.977Z,1011.76
2019-05-25T05:59:26.966Z,1011.76
2019-05-25T06:00:26.929Z,1011.79
2019-05-25T06:01:26.911Z,1011.80
2019-05-25T06:02:26.895Z,1011.80
2019-05-25T06:03:26.931Z,1011.83
2019-05-25T06:04:26.859Z,1011.80
2019-05-25T06:05:26.841Z,1011.80
2019-05-25T06:06:26.822Z,1011.81
2019-05-25T06:07:27.555Z,1011.83
2019-05-25T06:08:26.791Z,1011.82
2019-05-25T06:09:26.771Z,1011.82
2019-05-25T06:10:26.751Z,1011.82
2019-05-25T06:11:26.728Z,1011.84
2019-05-25T06:12:26.710Z,1011.87
2019-05-25T06:13:26.694Z,1011.88
2019-05-25T06:14:26.674Z,1011.89
2019-05-25T06:15:26.670Z,1011.88
2019-05-25T06:16:26.635Z,1011.91
2019-05-25T06:17:26.627Z,1011.88
2019-05-25T06:18:26.610Z,1011.92
2019-05-25T06:19:26.583Z,1011.96
2019-05-25T06:20:26.566Z,1011.98
2019-05-25T06:21:26.546Z,1012.00
2019-05-25T06:22:26.552Z,1012.00
2019-05-25T06:23:26.515Z,1012.03
2019-05-25T06:24:26.491Z,1012.04
2019-05-25T06:25:26.476Z,1011.99
2019-05-25T06:26:26.492Z,1012.04
2019-05-25T06:27:27.931Z,1012.08
2019-05-25T06:28:26.419Z,1012.06
2019-05-25T06:29:26.403Z,1012.06
2019-05-25T06:30:26.382Z,1012.05
2019-05-25T06:31:26.364Z,1012.10
2019-05-25T06:32:26.347Z,1012.08
2019-05-25T06:33:26.329Z,1012.10
2019-05-25T06:34:26.310Z,1012.12
2019-05-25T06:35:26.293Z,1012.15
2019-05-25T06:36:26.274Z,1012.13
2019-05-25T06:37:26.259Z,1012.19
2019-05-25T06:38:26.243Z,1012.16
2019-05-25T06:39:26.222Z,1012.22
2019-05-25T06:40:26.207Z,1012.25
2019-05-25T06:41:26.186Z,1012.23
2019-05-25T06:42:26.176Z,1012.22
2019-05-25T06:43:26.154Z,1012.22
2019-05-25T06:44:26.283Z,1012.24
2019-05-25T06:45:26.118Z,1012.23
2019-05-25T06:46:26.108Z,1012.27
2019-05-25T06:47:26.084Z,1012.24
2019-05-25T06:48:26.078Z,1012.24
2019-05-25T06:49:26.082Z,1012.19
2019-05-25T06:50:26.031Z,1012.22
2019-05-25T06:51:26.018Z,1012.21
2019-05-25T06:52:26.039Z,1012.20
2019-05-25T06:53:25.978Z,1012.20
2019-05-25T06:54:25.962Z,1012.17
2019-05-25T06:55:25.953Z,1012.21
2019-05-25T06:56:25.931Z,1012.24
2019-05-25T06:57:25.912Z,1012.15
2019-05-25T06:59:10.266Z,1012.17
2019-05-25T07:00:10.264Z,1012.22
2019-05-25T07:01:10.243Z,1012.28
2019-05-25T07:02:10.218Z,1012.26
2019-05-25T07:03:12.821Z,1012.27
2019-05-25T07:04:10.206Z,1012.26
2019-05-25T07:05:10.176Z,1012.36
2019-05-25T07:06:10.150Z,1012.67
2019-05-25T07:07:10.143Z,1012.26
2019-05-25T07:08:10.117Z,1012.30
2019-05-25T07:09:10.108Z,1012.20
2019-05-25T07:10:10.083Z,1012.22
2019-05-25T07:11:10.077Z,1012.23
2019-05-25T07:12:10.052Z,1012.23
2019-05-25T07:13:10.047Z,1012.23
2019-05-25T07:14:10.030Z,1012.25
2019-05-25T07:15:10.015Z,1012.22
2019-05-25T07:16:09.985Z,1012.22
2019-05-25T07:17:10.191Z,1012.20
2019-05-25T07:18:09.968Z,1012.20
2019-05-25T07:19:09.950Z,1012.23
2019-05-25T07:20:09.922Z,1012.25
2019-05-25T07:21:09.909Z,1012.22
2019-05-25T07:22:09.889Z,1012.27
2019-05-25T07:23:09.870Z,1012.29
2019-05-25T07:24:09.854Z,1012.31
2019-05-25T07:25:09.837Z,1012.29
2019-05-25T07:26:09.833Z,1012.29
2019-05-25T07:27:09.805Z,1012.31
2019-05-25T07:28:09.787Z,1012.38
2019-05-25T07:29:09.770Z,1012.34
2019-05-25T07:30:09.757Z,1012.38
2019-05-25T07:31:09.740Z,1012.38
2019-05-25T07:32:09.737Z,1012.39
2019-05-25T07:33:09.715Z,1012.39
2019-05-25T07:34:09.689Z,1012.44
2019-05-25T07:35:09.677Z,1012.45
2019-05-25T07:36:09.658Z,1012.44
2019-05-25T07:37:09.644Z,1012.41
2019-05-25T07:38:09.624Z,1012.46
2019-05-25T07:39:09.608Z,1012.48
2019-05-25T07:40:09.642Z,1012.48
2019-05-25T07:41:09.573Z,1012.46
2019-05-25T07:42:09.558Z,1012.45
2019-05-25T07:43:09.540Z,1012.47
2019-05-25T07:44:09.526Z,1012.49
2019-05-25T07:45:09.518Z,1012.46
2019-05-25T07:46:09.492Z,1012.47
2019-05-25T07:47:09.528Z,1012.45
2019-05-25T07:48:09.459Z,1012.44
2019-05-25T07:49:09.443Z,1012.45
2019-05-25T07:50:09.476Z,1012.47
2019-05-25T07:51:09.420Z,1012.47
2019-05-25T07:52:09.405Z,1012.46
2019-05-25T07:53:09.434Z,1012.42
2019-05-25T07:54:09.363Z,1012.46
2019-05-25T07:55:09.349Z,1012.47
2019-05-25T07:56:09.341Z,1012.47
2019-05-25T07:57:09.317Z,1012.46
2019-05-25T07:58:17.705Z,1012.43
2019-05-25T07:59:09.281Z,1012.47
2019-05-25T08:00:10.076Z,1012.47
2019-05-25T08:01:09.250Z,1012.47
2019-05-25T08:02:09.235Z,1012.49
2019-05-25T08:03:09.217Z,1012.51
2019-05-25T08:04:09.202Z,1012.54
2019-05-25T08:05:09.192Z,1012.57
2019-05-25T08:06:09.170Z,1012.57
2019-05-25T08:07:09.161Z,1012.60
2019-05-25T08:08:09.143Z,1012.53
2019-05-25T08:09:09.139Z,1012.56
2019-05-25T08:10:09.118Z,1012.53
2019-05-25T08:11:09.097Z,1012.53
2019-05-25T08:12:09.133Z,1012.57
2019-05-25T08:13:09.069Z,1012.53
2019-05-25T08:14:09.053Z,1012.52
2019-05-25T08:15:09.031Z,1012.56
2019-05-25T08:16:09.015Z,1012.58
2019-05-25T08:17:08.999Z,1012.57
2019-05-25T08:18:08.996Z,1012.49
2019-05-25T08:19:08.976Z,1012.52
2019-05-25T08:20:08.968Z,1012.51
2019-05-25T08:21:08.953Z,1012.52
2019-05-25T08:22:08.935Z,1012.54
2019-05-25T08:23:08.918Z,1012.55
2019-05-25T08:24:08.903Z,1012.50
2019-05-25T08:25:08.884Z,1012.51
2019-05-25T08:26:08.872Z,1012.51
2019-05-25T08:27:08.857Z,1012.55
2019-05-25T08:28:08.871Z,1012.55
2019-05-25T08:29:08.844Z,1012.52
2019-05-25T08:30:08.811Z,1012.47
2019-05-25T08:31:08.790Z,1012.53
2019-05-25T08:32:08.782Z,1012.51
2019-05-25T08:33:08.762Z,1012.50
2019-05-25T08:34:08.756Z,1012.54
2019-05-25T08:35:08.740Z,1012.55
2019-05-25T08:36:08.727Z,1012.54
2019-05-25T08:37:08.705Z,1012.52
2019-05-25T08:38:08.692Z,1012.61
2019-05-25T08:39:08.679Z,1012.64
2019-05-25T08:40:08.663Z,1012.63
2019-05-25T08:41:08.645Z,1012.62
2019-05-25T08:42:08.638Z,1012.66
2019-05-25T08:43:08.615Z,1012.65
2019-05-25T08:44:08.602Z,1012.63
2019-05-25T08:45:08.597Z,1012.64
2019-05-25T08:46:08.585Z,1012.63
2019-05-25T08:47:08.573Z,1012.65
2019-05-25T08:48:08.549Z,1012.69
2019-05-25T08:49:08.543Z,1012.66
2019-05-25T08:50:08.520Z,1012.67
2019-05-25T08:51:08.509Z,1012.64
2019-05-25T08:52:08.648Z,1012.65
2019-05-25T08:53:08.469Z,1012.64
2019-05-25T08:54:08.460Z,1012.66
2019-05-25T08:55:08.544Z,1012.63
2019-05-25T08:56:08.428Z,1012.61
2019-05-25T08:57:08.443Z,1012.64
2019-05-25T08:58:08.399Z,1012.64
2019-05-25T08:59:08.393Z,1012.66
2019-05-25T09:00:08.377Z,1012.59
2019-05-25T09:01:08.422Z,1012.65
2019-05-25T09:02:08.343Z,1012.62
2019-05-25T09:03:08.329Z,1012.66
2019-05-25T09:04:08.323Z,1012.66
2019-05-25T09:05:08.329Z,1012.61
2019-05-25T09:06:08.286Z,1012.60
2019-05-25T09:19:07.007Z,1012.64
2019-05-25T09:20:06.990Z,1012.72
2019-05-25T09:21:06.977Z,1012.63
2019-05-25T09:22:06.972Z,1012.66
2019-05-25T09:23:06.969Z,1012.69
2019-05-25T09:24:06.934Z,1012.75
2019-05-25T09:25:06.915Z,1012.77
2019-05-25T09:26:06.906Z,1012.71
2019-05-25T09:27:06.883Z,1012.66
2019-05-25T09:36:19.245Z,1012.63
2019-05-25T09:37:19.230Z,1012.63
2019-05-25T09:38:19.214Z,1012.64
2019-05-25T09:39:19.209Z,1012.75
2019-05-25T09:40:19.192Z,1012.68
2019-05-25T09:41:19.205Z,1012.75
2019-05-25T09:42:19.165Z,1012.73
2019-05-25T09:43:19.143Z,1012.66
2019-05-25T09:44:19.136Z,1012.71
2019-05-25T09:45:19.120Z,1012.63
2019-05-25T09:46:19.110Z,1012.62
2019-05-25T09:47:21.711Z,1012.66
2019-05-25T09:51:15.431Z,1012.93
2019-05-25T09:52:06.782Z,1012.91
2019-05-25T09:53:06.778Z,1012.79
2019-05-25T09:54:06.757Z,1012.77
2019-05-25T09:55:06.755Z,1012.89
2019-05-25T09:56:06.741Z,1012.72
2019-05-25T09:57:06.731Z,1012.71
2019-05-25T09:58:39.920Z,1012.68
2019-05-25T09:59:39.907Z,1012.70
2019-05-25T10:00:06.686Z,1012.71
2019-05-25T10:01:06.676Z,1012.73
2019-05-25T10:02:06.670Z,1012.77
2019-05-25T10:03:06.649Z,1012.77
2019-05-25T10:04:06.638Z,1013.07
2019-05-25T10:05:06.641Z,1012.94
2019-05-25T10:06:11.639Z,1013.16
2019-05-25T10:07:06.609Z,1013.15
2019-05-25T10:08:06.600Z,1013.16
2019-05-25T10:09:06.579Z,1012.81
2019-05-25T10:10:06.571Z,1012.91
2019-05-25T10:11:06.560Z,1012.80
2019-05-25T10:12:06.560Z,1012.80
2019-05-25T10:13:06.537Z,1012.76
2019-05-25T10:14:06.532Z,1012.73
2019-05-25T10:15:06.556Z,1012.82
2019-05-25T10:16:06.527Z,1012.71
2019-05-25T10:17:06.500Z,1012.79
2019-05-25T10:18:06.491Z,1012.82
2019-05-25T10:19:06.490Z,1012.78
2019-05-25T10:20:06.481Z,1012.80
2019-05-25T10:21:06.462Z,1012.79
2019-05-25T10:22:06.462Z,1012.82
2019-05-25T10:23:06.454Z,1012.79
2019-05-25T10:24:06.449Z,1012.83
2019-05-25T10:25:06.433Z,1012.77
2019-05-25T10:26:06.413Z,1012.89
2019-05-25T10:27:06.453Z,1012.92
2019-05-25T10:28:06.405Z,1012.93
2019-05-25T10:29:06.379Z,1013.01
2019-05-25T10:30:06.373Z,1012.89
2019-05-25T10:31:06.360Z,1012.85
2019-05-25T10:32:06.350Z,1012.83
2019-05-25T10:33:06.336Z,1012.82
2019-05-25T10:34:06.340Z,1012.83
2019-05-25T10:35:06.323Z,1012.81
2019-05-25T10:36:06.304Z,1012.79
2019-05-25T10:37:06.294Z,1012.76
2019-05-25T10:38:06.283Z,1012.82
2019-05-25T10:39:06.290Z,1012.81
2019-05-25T10:40:06.265Z,1012.82
2019-05-25T10:41:06.254Z,1012.83
2019-05-25T10:42:06.244Z,1012.91
2019-05-25T10:43:06.230Z,1012.93
2019-05-25T10:44:06.220Z,1012.87
2019-05-25T10:45:06.216Z,1012.84
2019-05-25T10:46:06.226Z,1012.85
2019-05-25T10:47:06.199Z,1012.76
2019-05-25T10:48:06.177Z,1012.81
2019-05-25T10:49:06.195Z,1012.81
2019-05-25T10:50:06.160Z,1012.82
2019-05-25T10:51:06.145Z,1012.79
2019-05-25T10:52:06.143Z,1012.81
2019-05-25T10:53:06.135Z,1012.76
2019-05-25T10:54:06.157Z,1012.79
2019-05-25T10:55:06.114Z,1012.76
2019-05-25T10:56:06.089Z,1012.71
2019-05-25T10:57:06.076Z,1012.77
2019-05-25T10:58:08.688Z,1012.80
2019-05-25T10:59:06.055Z,1012.68
2019-05-25T11:00:06.659Z,1012.81
2019-05-25T11:01:06.047Z,1012.76
2019-05-25T11:02:55.257Z,1012.79
2019-05-25T11:03:55.247Z,1012.81
2019-05-25T11:04:57.864Z,1012.76
2019-05-25T11:06:54.291Z,1012.76
2019-05-25T11:09:33.434Z,1012.68
2019-05-25T11:10:33.423Z,1012.69
2019-05-25T11:11:33.416Z,1012.76
2019-05-25T11:13:06.612Z,1012.77
2019-05-25T11:14:06.608Z,1012.80
2019-05-25T11:15:06.585Z,1012.77
2019-05-25T11:16:06.586Z,1012.77
2019-05-25T11:17:06.562Z,1012.81
2019-05-25T11:17:33.342Z,1012.79
2019-05-25T11:18:33.341Z,1012.74
2019-05-25T11:19:33.316Z,1012.76
2019-05-25T11:20:33.319Z,1012.78
2019-05-25T11:21:33.313Z,1012.76
2019-05-25T11:22:33.280Z,1012.72
2019-05-25T11:23:33.293Z,1012.70
2019-05-25T11:24:33.298Z,1012.78
2019-05-25T11:25:33.243Z,1012.78
2019-05-25T11:27:06.450Z,1012.90
2019-05-25T11:27:33.229Z,1012.84
2019-05-25T11:28:33.210Z,1012.77
2019-05-25T11:29:33.197Z,1012.80
2019-05-25T11:30:33.197Z,1012.77
2019-05-25T11:31:33.385Z,1012.67
2019-05-25T11:32:33.161Z,1012.69
2019-05-25T11:33:36.266Z,1012.73
2019-05-25T11:34:33.137Z,1012.72
2019-05-25T11:36:06.336Z,1012.71
2019-05-25T11:36:33.122Z,1012.72
2019-05-25T11:37:33.108Z,1012.71
2019-05-25T11:38:33.090Z,1012.72
2019-05-25T11:40:27.123Z,1012.71
2019-05-25T11:41:27.111Z,1012.72
2019-05-25T11:42:27.094Z,1012.73
2019-05-25T11:44:00.344Z,1012.72
2019-05-25T11:45:00.284Z,1012.71
2019-05-25T11:46:00.275Z,1012.69
2019-05-25T11:48:12.298Z,1012.67
2019-05-25T11:49:22.220Z,1012.63
2019-05-25T11:50:12.277Z,1012.71
2019-05-25T11:52:57.527Z,1012.64
2019-05-25T11:53:57.497Z,1012.54
2019-05-25T11:54:57.486Z,1012.61
2019-05-25T11:57:42.523Z,1012.51
2019-05-25T11:58:47.569Z,1012.55
2019-05-25T12:00:24.816Z,1012.55
2019-05-25T12:01:15.705Z,1012.60
2019-05-25T12:02:15.682Z,1012.54
2019-05-25T12:02:42.479Z,1012.59
2019-05-25T12:03:42.452Z,1012.52
2019-05-25T12:05:15.643Z,1012.51
2019-05-25T12:06:15.638Z,1012.43
2019-05-25T12:06:42.407Z,1012.53
2019-05-25T12:09:27.896Z,1012.60
2019-05-25T12:10:27.882Z,1012.58
2019-05-25T12:12:01.090Z,1012.54
2019-05-25T12:13:01.071Z,1012.48
2019-05-25T12:14:01.066Z,1012.52
2019-05-25T12:16:13.090Z,1012.50
2019-05-25T12:17:13.098Z,1012.52
2019-05-25T12:18:46.275Z,1012.49
2019-05-25T12:20:07.340Z,1012.47
2019-05-25T12:22:52.426Z,1012.43
2019-05-25T12:25:37.317Z,1012.42
2019-05-25T12:28:22.503Z,1012.43
2019-05-25T12:31:07.746Z,1012.35
2019-05-25T12:33:52.881Z,1012.29
2019-05-25T12:36:37.919Z,1012.30
2019-05-25T12:39:26.467Z,1012.23
2019-05-25T12:42:07.999Z,1012.29
2019-05-25T12:44:53.248Z,1012.27
2019-05-25T12:47:38.339Z,1012.23
